Aviation Digital Data Service (ADDS)

Output produced by METARs form (1633 UTC 28 August 2016)
found at http://aviationweather.gov/adds/metars/
 
KALB 281138Z 2812/2912 17006KT P6SM FEW160 SCT250 
     FM282000 18007KT P6SM SCT050 BKN150 
     FM290500 21006KT P6SM -SHRA BKN050 OVC100 
     FM291100 28006KT P6SM BKN200